Astoria Regional Airport

Airport
ICAO code: 
KAST
Summary
ICAO Region: 
NAM
Territory: 
Location: 
Astoria, Oregon,
Coordinates: 
Aerial View: 
46° 9' 20.777" N, 123° 52' 54.918" W
Airport BS: 
Bird Strike
Metar
Observation
KAST 021455Z AUTO 33007KT 9SM FEW026 BKN035 OVC046 09/07 A3027 RMK AO2 SLP251 T00940072 53008
Station
Astoria, Astoria Regional Airport
Date/Time
2021-12-02 14:55:00
Wind direction
330°
Wind speed
07 kts
Lowest cloud amount
few clouds
Temperature
9.4°C
Dew point
7.2°C
Humidity
86%
Weather condition
n/a

Description

Astoria Regional Airport is a public use airport located 6 km southwest of the central business district of Astoria, a city in Clatsop County, Oregon.

Climatology

Marine West Coast climate zone (Köppen climate classification Cfb), with some Mediterranean characteristics. Temperatures can vary from cool to warm, with warm, dry summers and cool, wet winters. Spring and fall are also moist seasons, with light rain falling for long periods. Winter snowfall does occur, but it is sporadic and rarely accumulates in large amounts.

Runways

Designator Length Width Surface Rops
13/31 1523 30 ASP Yes/Yes
8/26 1767 30 ASP Yes/Yes
Airport map: 
Aerial View: 

SKYbrary Partners:

Safety knowledge contributed by: